Terminal Aerodrome Forecast
Issued by NWS

Home | Current Version | Previous Version | Text Only | Print | Product List | Glossary On
Versions: 1 2 3 4 5 6 7 8 9 10 11 12 13 14 15 16 17 18 19 20 21 22 23
000
FTUS41 KBUF 062327
TAFIAG
TAF
KIAG 062327Z 0700/0724 11008KT 6SM -SHRA BKN080
     FM070200 14005KT P6SM BKN070
     FM070400 VRB03KT P6SM BKN060
     FM071300 19007KT P6SM SCT090
     FM071900 21008KT P6SM VCSH BKN130
     FM072100 23007KT 6SM -SHRA BKN090=

USA.gov is the U.S. government's official web portal to all federal, state and local government web resources and services.